sensor_id;sensor_type;location;lat;lon;timestamp;temperature;humidity
790;DHT22;378;48.844;9.156;2023-02-13T00:01:11;1.10;99.90
790;DHT22;378;48.844;9.156;2023-02-13T00:03:38;1.10;99.90
790;DHT22;378;48.844;9.156;2023-02-13T00:06:05;1.00;99.90
790;DHT22;378;48.844;9.156;2023-02-13T00:08:32;1.00;99.90
790;DHT22;378;48.844;9.156;2023-02-13T00:10:59;1.00;99.90
790;DHT22;378;48.844;9.156;2023-02-13T00:13:26;0.90;99.90
790;DHT22;378;48.844;9.156;2023-02-13T00:15:59;0.90;99.90
790;DHT22;378;48.844;9.156;2023-02-13T00:18:27;0.90;99.90
790;DHT22;378;48.844;9.156;2023-02-13T00:20:59;0.90;99.90
790;DHT22;378;48.844;9.156;2023-02-13T00:23:28;0.90;99.90
790;DHT22;378;48.844;9.156;2023-02-13T00:25:55;0.90;99.90
790;DHT22;378;48.844;9.156;2023-02-13T00:28:22;0.90;99.90
790;DHT22;378;48.844;9.156;2023-02-13T00:30:48;0.90;99.90
790;DHT22;378;48.844;9.156;2023-02-13T00:33:17;0.80;99.90
790;DHT22;378;48.844;9.156;2023-02-13T00:35:44;0.80;99.90
790;DHT22;378;48.844;9.156;2023-02-13T00:38:10;0.80;99.90
790;DHT22;378;48.844;9.156;2023-02-13T00:40:37;0.80;99.90
790;DHT22;378;48.844;9.156;2023-02-13T00:43:04;0.70;99.90
790;DHT22;378;48.844;9.156;2023-02-13T00:45:31;0.80;99.90
790;DHT22;378;48.844;9.156;2023-02-13T00:47:57;0.90;99.90
790;DHT22;378;48.844;9.156;2023-02-13T00:50:26;0.80;99.90
790;DHT22;378;48.844;9.156;2023-02-13T00:52:52;0.90;99.90
790;DHT22;378;48.844;9.156;2023-02-13T00:55:19;0.90;99.90
790;DHT22;378;48.844;9.156;2023-02-13T00:57:46;0.90;99.90
790;DHT22;378;48.844;9.156;2023-02-13T01:00:14;0.90;99.90
790;DHT22;378;48.844;9.156;2023-02-13T01:02:41;0.90;99.90
790;DHT22;378;48.844;9.156;2023-02-13T01:05:08;0.90;99.90
790;DHT22;378;48.844;9.156;2023-02-13T01:07:36;0.90;99.90
790;DHT22;378;48.844;9.156;2023-02-13T01:10:04;0.90;99.90
790;DHT22;378;48.844;9.156;2023-02-13T01:12:31;0.90;99.90
790;DHT22;378;48.844;9.156;2023-02-13T01:14:57;0.90;99.90
790;DHT22;378;48.844;9.156;2023-02-13T01:17:24;0.90;99.90
790;DHT22;378;48.844;9.156;2023-02-13T01:19:51;0.90;99.90
790;DHT22;378;48.844;9.156;2023-02-13T01:22:18;0.90;99.90
790;DHT22;378;48.844;9.156;2023-02-13T01:24:46;0.90;99.90
790;DHT22;378;48.844;9.156;2023-02-13T01:27:13;0.90;99.90
790;DHT22;378;48.844;9.156;2023-02-13T01:29:40;0.90;99.90
790;DHT22;378;48.844;9.156;2023-02-13T01:32:06;0.90;99.90
790;DHT22;378;48.844;9.156;2023-02-13T01:34:33;0.90;99.90
790;DHT22;378;48.844;9.156;2023-02-13T01:37:00;0.90;99.90
790;DHT22;378;48.844;9.156;2023-02-13T01:39:27;0.80;99.90
790;DHT22;378;48.844;9.156;2023-02-13T01:41:55;0.70;99.90
790;DHT22;378;48.844;9.156;2023-02-13T01:44:44;0.60;99.90
790;DHT22;378;48.844;9.156;2023-02-13T01:47:14;0.50;99.90
790;DHT22;378;48.844;9.156;2023-02-13T01:49:44;0.50;99.90
790;DHT22;378;48.844;9.156;2023-02-13T01:52:13;0.50;99.90
790;DHT22;378;48.844;9.156;2023-02-13T01:54:41;0.50;99.90
790;DHT22;378;48.844;9.156;2023-02-13T01:57:13;0.40;99.90
790;DHT22;378;48.844;9.156;2023-02-13T01:59:45;0.50;99.90
790;DHT22;378;48.844;9.156;2023-02-13T02:02:14;0.50;99.90
790;DHT22;378;48.844;9.156;2023-02-13T02:04:42;0.40;99.90
790;DHT22;378;48.844;9.156;2023-02-13T02:07:12;0.40;99.90
790;DHT22;378;48.844;9.156;2023-02-13T02:09:41;0.40;99.90
790;DHT22;378;48.844;9.156;2023-02-13T02:12:17;0.40;99.90
790;DHT22;378;48.844;9.156;2023-02-13T02:14:46;0.30;99.90
790;DHT22;378;48.844;9.156;2023-02-13T02:17:15;0.30;99.90
790;DHT22;378;48.844;9.156;2023-02-13T02:19:48;0.30;99.90
790;DHT22;378;48.844;9.156;2023-02-13T02:25:23;0.30;99.90
790;DHT22;378;48.844;9.156;2023-02-13T02:28:25;0.30;99.90
790;DHT22;378;48.844;9.156;2023-02-13T02:31:43;0.30;99.90
790;DHT22;378;48.844;9.156;2023-02-13T02:34:21;0.30;99.90
790;DHT22;378;48.844;9.156;2023-02-13T02:37:03;0.30;99.90
790;DHT22;378;48.844;9.156;2023-02-13T02:39:39;0.40;99.90
790;DHT22;378;48.844;9.156;2023-02-13T02:42:17;0.50;99.90
790;DHT22;378;48.844;9.156;2023-02-13T02:44:54;0.50;99.90
790;DHT22;378;48.844;9.156;2023-02-13T02:47:25;0.60;99.90
790;DHT22;378;48.844;9.156;2023-02-13T02:50:16;0.50;99.90
790;DHT22;378;48.844;9.156;2023-02-13T02:52:58;0.50;99.90
790;DHT22;378;48.844;9.156;2023-02-13T02:55:36;0.40;99.90
790;DHT22;378;48.844;9.156;2023-02-13T02:58:09;0.40;99.90
790;DHT22;378;48.844;9.156;2023-02-13T03:00:56;0.30;99.90
790;DHT22;378;48.844;9.156;2023-02-13T03:03:45;0.30;99.90
790;DHT22;378;48.844;9.156;2023-02-13T03:06:35;0.20;99.90
790;DHT22;378;48.844;9.156;2023-02-13T03:09:11;0.20;99.90
790;DHT22;378;48.844;9.156;2023-02-13T03:11:57;0.10;99.90
790;DHT22;378;48.844;9.156;2023-02-13T03:14:42;0.10;99.90
790;DHT22;378;48.844;9.156;2023-02-13T03:17:10;0.10;99.90
790;DHT22;378;48.844;9.156;2023-02-13T03:20:07;0.20;99.90
790;DHT22;378;48.844;9.156;2023-02-13T03:23:02;0.30;99.90
790;DHT22;378;48.844;9.156;2023-02-13T03:25:37;0.40;99.90
790;DHT22;378;48.844;9.156;2023-02-13T03:28:14;0.40;99.90
790;DHT22;378;48.844;9.156;2023-02-13T03:31:06;0.40;99.90
790;DHT22;378;48.844;9.156;2023-02-13T03:33:47;0.30;99.90
790;DHT22;378;48.844;9.156;2023-02-13T03:36:26;0.30;99.90
790;DHT22;378;48.844;9.156;2023-02-13T03:39:19;0.40;99.90
790;DHT22;378;48.844;9.156;2023-02-13T03:41:51;0.30;99.90
790;DHT22;378;48.844;9.156;2023-02-13T03:44:25;0.30;99.90
790;DHT22;378;48.844;9.156;2023-02-13T03:46:57;0.30;99.90
790;DHT22;378;48.844;9.156;2023-02-13T03:49:28;0.30;99.90
790;DHT22;378;48.844;9.156;2023-02-13T03:52:20;0.30;99.90
790;DHT22;378;48.844;9.156;2023-02-13T03:54:51;0.30;99.90
790;DHT22;378;48.844;9.156;2023-02-13T03:57:38;0.20;99.90
790;DHT22;378;48.844;9.156;2023-02-13T04:00:24;0.10;99.90
790;DHT22;378;48.844;9.156;2023-02-13T04:02:57;0.00;99.90
790;DHT22;378;48.844;9.156;2023-02-13T04:05:28;-0.10;99.90
790;DHT22;378;48.844;9.156;2023-02-13T04:07:57;-0.10;99.90
790;DHT22;378;48.844;9.156;2023-02-13T04:10:27;-0.20;99.90
790;DHT22;378;48.844;9.156;2023-02-13T04:13:04;-0.30;99.90
790;DHT22;378;48.844;9.156;2023-02-13T04:15:36;-0.30;99.90
790;DHT22;378;48.844;9.156;2023-02-13T04:18:12;-0.40;99.90
790;DHT22;378;48.844;9.156;2023-02-13T04:20:40;-0.40;99.90
790;DHT22;378;48.844;9.156;2023-02-13T04:23:09;-0.40;99.90
790;DHT22;378;48.844;9.156;2023-02-13T04:25:38;-0.50;99.90
790;DHT22;378;48.844;9.156;2023-02-13T04:28:06;-0.40;99.90
790;DHT22;378;48.844;9.156;2023-02-13T04:30:33;-0.40;99.90
790;DHT22;378;48.844;9.156;2023-02-13T04:32:59;-0.50;99.90
790;DHT22;378;48.844;9.156;2023-02-13T04:35:26;-0.50;99.90
790;DHT22;378;48.844;9.156;2023-02-13T04:37:53;-0.50;99.90
790;DHT22;378;48.844;9.156;2023-02-13T04:40:22;-0.50;99.90
790;DHT22;378;48.844;9.156;2023-02-13T04:42:49;-0.50;99.90
790;DHT22;378;48.844;9.156;2023-02-13T04:45:16;-0.50;99.90
790;DHT22;378;48.844;9.156;2023-02-13T04:47:49;-0.60;99.90
790;DHT22;378;48.844;9.156;2023-02-13T04:50:16;-0.60;99.90
790;DHT22;378;48.844;9.156;2023-02-13T04:52:43;-0.60;99.90
790;DHT22;378;48.844;9.156;2023-02-13T04:55:09;-0.60;99.90
790;DHT22;378;48.844;9.156;2023-02-13T04:57:38;-0.60;99.90
790;DHT22;378;48.844;9.156;2023-02-13T05:00:06;-0.60;99.90
790;DHT22;378;48.844;9.156;2023-02-13T05:02:33;-0.60;99.90
790;DHT22;378;48.844;9.156;2023-02-13T05:05:00;-0.60;99.90
790;DHT22;378;48.844;9.156;2023-02-13T05:07:26;-0.50;99.90
790;DHT22;378;48.844;9.156;2023-02-13T05:09:53;-0.50;99.90
790;DHT22;378;48.844;9.156;2023-02-13T05:12:20;-0.50;99.90
790;DHT22;378;48.844;9.156;2023-02-13T05:14:48;-0.50;99.90
790;DHT22;378;48.844;9.156;2023-02-13T05:17:15;-0.50;99.90
790;DHT22;378;48.844;9.156;2023-02-13T05:19:42;-0.40;99.90
790;DHT22;378;48.844;9.156;2023-02-13T05:22:09;-0.40;99.90
790;DHT22;378;48.844;9.156;2023-02-13T05:24:54;-0.40;99.90
790;DHT22;378;48.844;9.156;2023-02-13T05:27:21;-0.30;99.90
790;DHT22;378;48.844;9.156;2023-02-13T05:29:49;-0.30;99.90
790;DHT22;378;48.844;9.156;2023-02-13T05:32:16;-0.40;99.90
790;DHT22;378;48.844;9.156;2023-02-13T05:34:43;-0.40;99.90
790;DHT22;378;48.844;9.156;2023-02-13T05:37:09;-0.40;99.90
790;DHT22;378;48.844;9.156;2023-02-13T05:39:36;-0.40;99.90
790;DHT22;378;48.844;9.156;2023-02-13T05:42:03;-0.40;99.90
790;DHT22;378;48.844;9.156;2023-02-13T05:44:30;-0.50;99.90
790;DHT22;378;48.844;9.156;2023-02-13T05:46:58;-0.40;99.90
790;DHT22;378;48.844;9.156;2023-02-13T05:49:25;-0.50;99.90
790;DHT22;378;48.844;9.156;2023-02-13T05:51:52;-0.50;99.90
790;DHT22;378;48.844;9.156;2023-02-13T05:54:19;-0.50;99.90
790;DHT22;378;48.844;9.156;2023-02-13T05:56:46;-0.50;99.90
790;DHT22;378;48.844;9.156;2023-02-13T05:59:13;-0.50;99.90
790;DHT22;378;48.844;9.156;2023-02-13T06:01:40;-0.50;99.90
790;DHT22;378;48.844;9.156;2023-02-13T06:04:08;-0.60;99.90
790;DHT22;378;48.844;9.156;2023-02-13T06:06:35;-0.60;99.90
790;DHT22;378;48.844;9.156;2023-02-13T06:09:02;-0.60;99.90
790;DHT22;378;48.844;9.156;2023-02-13T06:11:29;-0.60;99.90
790;DHT22;378;48.844;9.156;2023-02-13T06:13:56;-0.70;99.90
790;DHT22;378;48.844;9.156;2023-02-13T06:16:22;-0.60;99.90
790;DHT22;378;48.844;9.156;2023-02-13T06:18:49;-0.60;99.90
790;DHT22;378;48.844;9.156;2023-02-13T06:21:17;-0.60;99.90
790;DHT22;378;48.844;9.156;2023-02-13T06:23:44;-0.60;99.90
790;DHT22;378;48.844;9.156;2023-02-13T06:26:11;-0.70;99.90
790;DHT22;378;48.844;9.156;2023-02-13T06:28:38;-0.60;99.90
790;DHT22;378;48.844;9.156;2023-02-13T06:31:05;-0.70;99.90
790;DHT22;378;48.844;9.156;2023-02-13T06:33:32;-0.70;99.90
790;DHT22;378;48.844;9.156;2023-02-13T06:35:58;-0.70;99.90
790;DHT22;378;48.844;9.156;2023-02-13T06:38:27;-0.70;99.90
790;DHT22;378;48.844;9.156;2023-02-13T06:40:58;-0.70;99.90
790;DHT22;378;48.844;9.156;2023-02-13T06:43:26;-0.60;99.90
790;DHT22;378;48.844;9.156;2023-02-13T06:45:53;-0.50;99.90
790;DHT22;378;48.844;9.156;2023-02-13T06:48:20;-0.50;99.90
790;DHT22;378;48.844;9.156;2023-02-13T06:50:46;-0.50;99.90
790;DHT22;378;48.844;9.156;2023-02-13T06:53:13;-0.50;99.90
790;DHT22;378;48.844;9.156;2023-02-13T06:55:41;-0.40;99.90
790;DHT22;378;48.844;9.156;2023-02-13T06:58:08;-0.40;99.90
790;DHT22;378;48.844;9.156;2023-02-13T07:00:35;-0.40;99.90
790;DHT22;378;48.844;9.156;2023-02-13T07:03:03;-0.40;99.90
790;DHT22;378;48.844;9.156;2023-02-13T07:05:31;-0.40;99.90
790;DHT22;378;48.844;9.156;2023-02-13T07:07:58;-0.40;99.90
790;DHT22;378;48.844;9.156;2023-02-13T07:10:25;-0.40;99.90
790;DHT22;378;48.844;9.156;2023-02-13T07:12:53;-0.40;99.90
790;DHT22;378;48.844;9.156;2023-02-13T07:15:20;-0.30;99.90
790;DHT22;378;48.844;9.156;2023-02-13T07:17:47;-0.30;99.90
790;DHT22;378;48.844;9.156;2023-02-13T07:20:13;-0.30;99.90
790;DHT22;378;48.844;9.156;2023-02-13T07:22:40;-0.30;99.90
790;DHT22;378;48.844;9.156;2023-02-13T07:25:07;-0.20;99.90
790;DHT22;378;48.844;9.156;2023-02-13T07:27:34;-0.10;99.90
790;DHT22;378;48.844;9.156;2023-02-13T07:30:03;-0.10;99.90
790;DHT22;378;48.844;9.156;2023-02-13T07:32:29;0.00;99.90
790;DHT22;378;48.844;9.156;2023-02-13T07:34:56;0.00;99.90
790;DHT22;378;48.844;9.156;2023-02-13T07:37:23;0.00;99.90
790;DHT22;378;48.844;9.156;2023-02-13T07:39:50;0.10;99.90
790;DHT22;378;48.844;9.156;2023-02-13T07:42:17;0.10;99.90
790;DHT22;378;48.844;9.156;2023-02-13T07:44:43;0.20;99.90
790;DHT22;378;48.844;9.156;2023-02-13T07:47:12;0.30;99.90
790;DHT22;378;48.844;9.156;2023-02-13T07:49:38;0.30;99.90
790;DHT22;378;48.844;9.156;2023-02-13T07:52:06;0.50;99.90
790;DHT22;378;48.844;9.156;2023-02-13T07:54:32;0.60;99.90
790;DHT22;378;48.844;9.156;2023-02-13T07:56:59;0.80;99.90
790;DHT22;378;48.844;9.156;2023-02-13T07:59:26;1.00;99.90
790;DHT22;378;48.844;9.156;2023-02-13T08:01:53;1.10;99.90
790;DHT22;378;48.844;9.156;2023-02-13T08:04:21;1.30;99.90
790;DHT22;378;48.844;9.156;2023-02-13T08:06:48;1.50;99.90
790;DHT22;378;48.844;9.156;2023-02-13T08:09:18;1.70;99.90
790;DHT22;378;48.844;9.156;2023-02-13T08:12:05;1.80;99.90
790;DHT22;378;48.844;9.156;2023-02-13T08:14:33;2.20;99.90
790;DHT22;378;48.844;9.156;2023-02-13T08:17:00;2.60;99.90
790;DHT22;378;48.844;9.156;2023-02-13T08:19:28;3.10;99.90
790;DHT22;378;48.844;9.156;2023-02-13T08:21:55;3.80;99.90
790;DHT22;378;48.844;9.156;2023-02-13T08:24:23;4.20;99.90
790;DHT22;378;48.844;9.156;2023-02-13T08:26:50;4.80;99.90
790;DHT22;378;48.844;9.156;2023-02-13T08:29:16;6.00;99.90
790;DHT22;378;48.844;9.156;2023-02-13T08:31:44;6.60;99.90
790;DHT22;378;48.844;9.156;2023-02-13T08:34:10;7.30;99.90
790;DHT22;378;48.844;9.156;2023-02-13T08:36:39;7.20;99.90
790;DHT22;378;48.844;9.156;2023-02-13T08:39:05;7.80;99.90
790;DHT22;378;48.844;9.156;2023-02-13T08:41:32;7.80;99.90
790;DHT22;378;48.844;9.156;2023-02-13T08:44:00;8.30;99.90
790;DHT22;378;48.844;9.156;2023-02-13T08:46:27;8.20;99.90
790;DHT22;378;48.844;9.156;2023-02-13T08:48:54;8.40;99.90
790;DHT22;378;48.844;9.156;2023-02-13T08:51:21;8.80;99.90
790;DHT22;378;48.844;9.156;2023-02-13T08:53:49;8.30;99.90
790;DHT22;378;48.844;9.156;2023-02-13T08:56:16;8.40;99.90
790;DHT22;378;48.844;9.156;2023-02-13T08:58:43;8.60;99.90
790;DHT22;378;48.844;9.156;2023-02-13T09:01:10;8.90;99.90
790;DHT22;378;48.844;9.156;2023-02-13T09:03:36;9.30;99.90
790;DHT22;378;48.844;9.156;2023-02-13T09:06:04;8.90;99.90
790;DHT22;378;48.844;9.156;2023-02-13T09:08:31;9.00;99.90
790;DHT22;378;48.844;9.156;2023-02-13T09:11:00;9.10;99.90
790;DHT22;378;48.844;9.156;2023-02-13T09:13:28;8.90;99.90
790;DHT22;378;48.844;9.156;2023-02-13T09:15:58;8.80;99.90
790;DHT22;378;48.844;9.156;2023-02-13T09:18:25;9.70;99.90
790;DHT22;378;48.844;9.156;2023-02-13T09:20:57;9.80;99.90
790;DHT22;378;48.844;9.156;2023-02-13T09:23:25;9.50;99.90
790;DHT22;378;48.844;9.156;2023-02-13T09:25:52;9.30;99.90
790;DHT22;378;48.844;9.156;2023-02-13T09:28:20;9.40;99.90
790;DHT22;378;48.844;9.156;2023-02-13T09:30:47;9.60;99.90
790;DHT22;378;48.844;9.156;2023-02-13T09:33:14;9.70;99.90
790;DHT22;378;48.844;9.156;2023-02-13T09:35:41;9.90;99.90
790;DHT22;378;48.844;9.156;2023-02-13T09:38:09;9.90;99.90
790;DHT22;378;48.844;9.156;2023-02-13T09:40:40;9.80;99.90
790;DHT22;378;48.844;9.156;2023-02-13T09:43:13;10.20;99.90
790;DHT22;378;48.844;9.156;2023-02-13T09:45:43;10.10;99.90
790;DHT22;378;48.844;9.156;2023-02-13T09:48:17;10.40;99.90
790;DHT22;378;48.844;9.156;2023-02-13T09:50:44;10.20;99.90
790;DHT22;378;48.844;9.156;2023-02-13T09:53:18;10.10;99.90
790;DHT22;378;48.844;9.156;2023-02-13T09:55:50;10.30;99.90
790;DHT22;378;48.844;9.156;2023-02-13T09:58:32;10.80;99.90
790;DHT22;378;48.844;9.156;2023-02-13T10:01:05;11.00;99.90
790;DHT22;378;48.844;9.156;2023-02-13T10:03:42;10.40;99.90
790;DHT22;378;48.844;9.156;2023-02-13T10:06:14;10.30;99.90
790;DHT22;378;48.844;9.156;2023-02-13T10:08:58;10.30;99.90
790;DHT22;378;48.844;9.156;2023-02-13T10:11:52;10.40;99.90
790;DHT22;378;48.844;9.156;2023-02-13T10:14:30;10.60;99.90
790;DHT22;378;48.844;9.156;2023-02-13T10:17:03;11.10;99.90
790;DHT22;378;48.844;9.156;2023-02-13T10:19:35;10.70;99.90
790;DHT22;378;48.844;9.156;2023-02-13T10:22:06;10.50;99.90
790;DHT22;378;48.844;9.156;2023-02-13T10:24:38;10.10;99.90
790;DHT22;378;48.844;9.156;2023-02-13T10:27:15;9.40;99.90
790;DHT22;378;48.844;9.156;2023-02-13T10:29:46;9.40;99.90
790;DHT22;378;48.844;9.156;2023-02-13T10:32:42;9.00;99.90
790;DHT22;378;48.844;9.156;2023-02-13T10:35:18;8.60;99.90
790;DHT22;378;48.844;9.156;2023-02-13T10:37:47;8.10;99.90
790;DHT22;378;48.844;9.156;2023-02-13T10:40:16;7.70;99.90
790;DHT22;378;48.844;9.156;2023-02-13T10:42:45;7.50;99.90
790;DHT22;378;48.844;9.156;2023-02-13T10:45:30;7.40;99.90
790;DHT22;378;48.844;9.156;2023-02-13T10:48:11;7.20;99.90
790;DHT22;378;48.844;9.156;2023-02-13T10:50:46;7.20;99.90
790;DHT22;378;48.844;9.156;2023-02-13T10:53:18;7.20;99.90
790;DHT22;378;48.844;9.156;2023-02-13T10:55:59;7.30;99.90
790;DHT22;378;48.844;9.156;2023-02-13T10:58:38;7.20;99.90
790;DHT22;378;48.844;9.156;2023-02-13T11:01:13;7.10;99.90
790;DHT22;378;48.844;9.156;2023-02-13T11:03:44;7.10;99.90
790;DHT22;378;48.844;9.156;2023-02-13T11:06:14;7.20;99.90
790;DHT22;378;48.844;9.156;2023-02-13T11:08:45;7.00;99.90
790;DHT22;378;48.844;9.156;2023-02-13T11:11:30;7.00;99.90
790;DHT22;378;48.844;9.156;2023-02-13T11:14:12;7.00;99.90
790;DHT22;378;48.844;9.156;2023-02-13T11:16:56;7.00;99.90
790;DHT22;378;48.844;9.156;2023-02-13T11:19:29;7.00;99.90
790;DHT22;378;48.844;9.156;2023-02-13T11:22:01;6.90;99.90
790;DHT22;378;48.844;9.156;2023-02-13T11:24:29;6.90;99.90
790;DHT22;378;48.844;9.156;2023-02-13T11:26:59;7.00;99.90
790;DHT22;378;48.844;9.156;2023-02-13T11:29:28;7.10;99.90
790;DHT22;378;48.844;9.156;2023-02-13T11:32:17;7.20;99.90
790;DHT22;378;48.844;9.156;2023-02-13T11:34:46;7.30;99.90
790;DHT22;378;48.844;9.156;2023-02-13T11:37:18;7.30;99.90
790;DHT22;378;48.844;9.156;2023-02-13T11:39:46;7.20;99.90
790;DHT22;378;48.844;9.156;2023-02-13T11:42:14;7.20;99.90
790;DHT22;378;48.844;9.156;2023-02-13T11:44:47;7.30;99.90
790;DHT22;378;48.844;9.156;2023-02-13T11:47:14;7.30;99.90
790;DHT22;378;48.844;9.156;2023-02-13T11:49:46;7.40;99.90
790;DHT22;378;48.844;9.156;2023-02-13T11:52:23;7.30;99.90
790;DHT22;378;48.844;9.156;2023-02-13T11:54:56;7.40;99.90
790;DHT22;378;48.844;9.156;2023-02-13T11:57:27;7.50;99.90
790;DHT22;378;48.844;9.156;2023-02-13T11:59:54;7.50;99.90
790;DHT22;378;48.844;9.156;2023-02-13T12:02:23;7.60;99.90
790;DHT22;378;48.844;9.156;2023-02-13T12:04:53;7.60;99.90
790;DHT22;378;48.844;9.156;2023-02-13T12:07:23;7.70;99.90
790;DHT22;378;48.844;9.156;2023-02-13T12:09:56;7.90;99.90
790;DHT22;378;48.844;9.156;2023-02-13T12:12:31;8.00;99.90
790;DHT22;378;48.844;9.156;2023-02-13T12:15:01;7.90;99.90
790;DHT22;378;48.844;9.156;2023-02-13T12:17:30;7.90;99.90
790;DHT22;378;48.844;9.156;2023-02-13T12:19:59;7.90;99.90
790;DHT22;378;48.844;9.156;2023-02-13T12:22:31;8.00;99.90
790;DHT22;378;48.844;9.156;2023-02-13T12:25:28;8.00;99.90
790;DHT22;378;48.844;9.156;2023-02-13T12:28:10;7.90;99.90
790;DHT22;378;48.844;9.156;2023-02-13T12:31:03;8.00;99.90
790;DHT22;378;48.844;9.156;2023-02-13T12:34:02;8.10;99.90
790;DHT22;378;48.844;9.156;2023-02-13T12:36:44;8.10;99.90
790;DHT22;378;48.844;9.156;2023-02-13T12:39:17;8.10;99.90
790;DHT22;378;48.844;9.156;2023-02-13T12:41:58;8.20;99.90
790;DHT22;378;48.844;9.156;2023-02-13T12:47:20;8.20;99.90
790;DHT22;378;48.844;9.156;2023-02-13T12:50:02;8.20;99.90
790;DHT22;378;48.844;9.156;2023-02-13T12:52:51;8.10;99.90
790;DHT22;378;48.844;9.156;2023-02-13T12:58:35;8.30;99.90
790;DHT22;378;48.844;9.156;2023-02-13T13:01:13;8.30;99.90
790;DHT22;378;48.844;9.156;2023-02-13T13:03:48;8.40;99.90
790;DHT22;378;48.844;9.156;2023-02-13T13:06:28;8.50;99.90
790;DHT22;378;48.844;9.156;2023-02-13T13:12:20;8.70;99.90
790;DHT22;378;48.844;9.156;2023-02-13T13:14:54;8.80;99.90
790;DHT22;378;48.844;9.156;2023-02-13T13:17:38;9.00;99.90
790;DHT22;378;48.844;9.156;2023-02-13T13:20:28;9.10;99.90
790;DHT22;378;48.844;9.156;2023-02-13T13:23:04;9.20;99.90
790;DHT22;378;48.844;9.156;2023-02-13T13:25:41;9.40;99.90
790;DHT22;378;48.844;9.156;2023-02-13T13:28:15;9.40;99.90
790;DHT22;378;48.844;9.156;2023-02-13T13:30:44;9.40;99.90
790;DHT22;378;48.844;9.156;2023-02-13T13:33:15;9.40;99.90
790;DHT22;378;48.844;9.156;2023-02-13T13:35:45;9.50;99.90
790;DHT22;378;48.844;9.156;2023-02-13T13:38:17;9.50;99.90
790;DHT22;378;48.844;9.156;2023-02-13T13:40:53;9.60;99.90
790;DHT22;378;48.844;9.156;2023-02-13T13:43:29;9.60;99.90
790;DHT22;378;48.844;9.156;2023-02-13T13:46:02;9.70;99.90
790;DHT22;378;48.844;9.156;2023-02-13T13:48:54;9.80;99.90
790;DHT22;378;48.844;9.156;2023-02-13T13:51:25;9.90;99.90
790;DHT22;378;48.844;9.156;2023-02-13T13:54:17;9.90;99.90
790;DHT22;378;48.844;9.156;2023-02-13T13:57:06;9.90;99.90
790;DHT22;378;48.844;9.156;2023-02-13T13:59:57;9.80;99.90
790;DHT22;378;48.844;9.156;2023-02-13T14:02:43;9.60;99.90
790;DHT22;378;48.844;9.156;2023-02-13T14:05:20;9.70;99.90
790;DHT22;378;48.844;9.156;2023-02-13T14:07:49;9.70;99.90
790;DHT22;378;48.844;9.156;2023-02-13T14:13:33;9.70;99.90
790;DHT22;378;48.844;9.156;2023-02-13T14:16:02;9.60;99.90
790;DHT22;378;48.844;9.156;2023-02-13T14:18:29;9.60;99.90
790;DHT22;378;48.844;9.156;2023-02-13T14:20:59;9.50;99.90
790;DHT22;378;48.844;9.156;2023-02-13T14:23:43;9.50;99.90
790;DHT22;378;48.844;9.156;2023-02-13T14:26:37;9.50;99.90
790;DHT22;378;48.844;9.156;2023-02-13T14:29:21;9.60;99.90
790;DHT22;378;48.844;9.156;2023-02-13T14:32:00;9.60;99.90
790;DHT22;378;48.844;9.156;2023-02-13T14:34:31;9.60;99.90
790;DHT22;378;48.844;9.156;2023-02-13T14:37:18;9.50;99.90
790;DHT22;378;48.844;9.156;2023-02-13T14:40:25;9.50;99.90
790;DHT22;378;48.844;9.156;2023-02-13T14:42:55;9.50;99.90
790;DHT22;378;48.844;9.156;2023-02-13T14:45:26;9.50;99.90
790;DHT22;378;48.844;9.156;2023-02-13T14:47:56;9.50;99.90
790;DHT22;378;48.844;9.156;2023-02-13T14:50:25;9.50;99.90
790;DHT22;378;48.844;9.156;2023-02-13T14:52:54;9.50;99.90
790;DHT22;378;48.844;9.156;2023-02-13T14:55:30;9.50;99.90
790;DHT22;378;48.844;9.156;2023-02-13T14:58:03;9.50;99.90
790;DHT22;378;48.844;9.156;2023-02-13T15:00:37;9.50;99.90
790;DHT22;378;48.844;9.156;2023-02-13T15:03:19;9.50;99.90
790;DHT22;378;48.844;9.156;2023-02-13T15:05:50;9.50;99.90
790;DHT22;378;48.844;9.156;2023-02-13T15:08:19;9.40;99.90
790;DHT22;378;48.844;9.156;2023-02-13T15:10:49;9.40;99.90
790;DHT22;378;48.844;9.156;2023-02-13T15:13:20;9.30;99.90
790;DHT22;378;48.844;9.156;2023-02-13T15:15:51;9.30;99.90
790;DHT22;378;48.844;9.156;2023-02-13T15:18:23;9.30;99.90
790;DHT22;378;48.844;9.156;2023-02-13T15:20:52;9.30;99.90
790;DHT22;378;48.844;9.156;2023-02-13T15:23:22;9.30;99.90
790;DHT22;378;48.844;9.156;2023-02-13T15:25:56;9.20;99.90
790;DHT22;378;48.844;9.156;2023-02-13T15:28:24;9.20;99.90
790;DHT22;378;48.844;9.156;2023-02-13T15:30:56;9.10;99.90
790;DHT22;378;48.844;9.156;2023-02-13T15:33:26;9.10;99.90
790;DHT22;378;48.844;9.156;2023-02-13T15:35:55;9.00;99.90
790;DHT22;378;48.844;9.156;2023-02-13T15:38:25;9.00;99.90
790;DHT22;378;48.844;9.156;2023-02-13T15:40:55;9.00;99.90
790;DHT22;378;48.844;9.156;2023-02-13T15:43:30;8.90;99.90
790;DHT22;378;48.844;9.156;2023-02-13T15:46:00;8.80;99.90
790;DHT22;378;48.844;9.156;2023-02-13T15:48:30;8.80;99.90
790;DHT22;378;48.844;9.156;2023-02-13T15:50:58;8.70;99.90
790;DHT22;378;48.844;9.156;2023-02-13T15:53:25;8.60;99.90
790;DHT22;378;48.844;9.156;2023-02-13T15:55:57;8.50;99.90
790;DHT22;378;48.844;9.156;2023-02-13T15:58:28;8.50;99.90
790;DHT22;378;48.844;9.156;2023-02-13T16:01:00;8.40;99.90
790;DHT22;378;48.844;9.156;2023-02-13T16:03:30;8.40;99.90
790;DHT22;378;48.844;9.156;2023-02-13T16:05:58;8.30;99.90
790;DHT22;378;48.844;9.156;2023-02-13T16:08:31;8.30;99.90
790;DHT22;378;48.844;9.156;2023-02-13T16:11:17;8.20;99.90
790;DHT22;378;48.844;9.156;2023-02-13T16:16:46;8.00;99.90
790;DHT22;378;48.844;9.156;2023-02-13T16:19:30;7.90;99.90
790;DHT22;378;48.844;9.156;2023-02-13T16:22:00;7.90;99.90
790;DHT22;378;48.844;9.156;2023-02-13T16:24:28;7.80;99.90
790;DHT22;378;48.844;9.156;2023-02-13T16:26:57;7.70;99.90
790;DHT22;378;48.844;9.156;2023-02-13T16:29:25;7.60;99.90
790;DHT22;378;48.844;9.156;2023-02-13T16:32:00;7.50;99.90
790;DHT22;378;48.844;9.156;2023-02-13T16:34:30;7.50;99.90
790;DHT22;378;48.844;9.156;2023-02-13T16:36:57;7.40;99.90
790;DHT22;378;48.844;9.156;2023-02-13T16:39:26;7.30;99.90
790;DHT22;378;48.844;9.156;2023-02-13T16:41:55;7.20;99.90
790;DHT22;378;48.844;9.156;2023-02-13T16:44:27;7.10;99.90
790;DHT22;378;48.844;9.156;2023-02-13T16:46:56;6.90;99.90
790;DHT22;378;48.844;9.156;2023-02-13T16:49:25;6.80;99.90
790;DHT22;378;48.844;9.156;2023-02-13T16:52:14;6.70;99.90
790;DHT22;378;48.844;9.156;2023-02-13T16:54:54;6.60;99.90
790;DHT22;378;48.844;9.156;2023-02-13T16:57:24;6.50;99.90
790;DHT22;378;48.844;9.156;2023-02-13T16:59:56;6.40;99.90
790;DHT22;378;48.844;9.156;2023-02-13T17:02:24;6.30;99.90
790;DHT22;378;48.844;9.156;2023-02-13T17:04:53;6.20;99.90
790;DHT22;378;48.844;9.156;2023-02-13T17:07:24;6.10;99.90
790;DHT22;378;48.844;9.156;2023-02-13T17:09:52;6.00;99.90
790;DHT22;378;48.844;9.156;2023-02-13T17:12:19;5.90;99.90
790;DHT22;378;48.844;9.156;2023-02-13T17:14:46;5.90;99.90
790;DHT22;378;48.844;9.156;2023-02-13T17:17:16;5.80;99.90
790;DHT22;378;48.844;9.156;2023-02-13T17:19:43;5.70;99.90
790;DHT22;378;48.844;9.156;2023-02-13T17:22:18;5.60;99.90
790;DHT22;378;48.844;9.156;2023-02-13T17:24:48;5.60;99.90
790;DHT22;378;48.844;9.156;2023-02-13T17:27:15;5.50;99.90
790;DHT22;378;48.844;9.156;2023-02-13T17:29:42;5.40;99.90
790;DHT22;378;48.844;9.156;2023-02-13T17:32:15;5.40;99.90
790;DHT22;378;48.844;9.156;2023-02-13T17:34:42;5.20;99.90
790;DHT22;378;48.844;9.156;2023-02-13T17:37:15;5.20;99.90